Fort Lauderdale Hollywood International Airport Fort Lauderdale US
ICAO: KFLL
IATA: FLL
Category: Large
Scheduled Services: Yes

Elevation: 9 ft
TransAlt. 18000 ft.

Airport Communications:
MIAMI APP:118.1
ATIS:135
CLNC DEL:128.4
MIAMI DEP:119.7
GND:121.4
TWR:119.3
UNICOM:122.95

KFLL Zoom In..

If you have problems with the map follow the link
https://www.worldairports.se/pages/airport.php?
ICAO=KFLL

Runways:

(A) RW 10L length 9000 ft width 150 ft
ILS 110.10 / hdg 96

(B) RW 10R length 5276 ft width 100 ft
---- / hdg 96

(C) RW 28L length 5276 ft width 100 ft
---- / hdg 276

(D) RW 28R length 9000 ft width 150 ft
ILS 110.70 / hdg 276

Location; KFLL
Day. 25 / Time. 22.53 Zulu
* Altimeter: 30.03
* Temperature: 22° c. 71.6°f.
* Wind from: 020° Speed 04 kn.
Dewpoint: 09° c.
Visibility: 10 Statute Miles.
Clouds: Few 3700 ft.
Clouds: Few 22000 ft.

KFLL 252253Z 02004KT 10SM FEW037 FEW220 22/09 A3003 RMK AO2 SLP167 T02170094


Wind From 020°
Speed 04 kn.

 
 
jpsmedia worldairports.se 2020   terms of use